Time;durP1;ratioP1;P1;durP2;ratioP2;P2;SDS_P1;SDS_P2;PMS_P1;PMS_P2;Temp;Humidity;BMP_temperature;BMP_pressure;BME280_temperature;BME280_humidity;BME280_pressure;Samples;Min_cycle;Max_cycle;Signal;HPM_P1;HPM_P2
2021/07/24 00:01:10;;;;;;;8.93;7.30;;;;;;;13.96;100.00;100837.44;5033105;28;20037;-81
2021/07/24 00:03:37;;;;;;;9.63;6.85;;;;;;;13.97;100.00;100832.06;5016887;28;20474;-82
2021/07/24 00:06:04;;;;;;;10.25;7.22;;;;;;;13.95;100.00;100833.00;5032149;28;20454;-82
2021/07/24 00:08:30;;;;;;;11.43;7.82;;;;;;;14.00;100.00;100816.03;5010083;28;20047;-81
2021/07/24 00:11:00;;;;;;;9.85;7.55;;;;;;;13.98;99.68;100823.19;5014553;28;20068;-81
2021/07/24 00:13:27;;;;;;;9.13;7.95;;;;;;;13.95;100.00;100822.38;5004084;28;20044;-81
2021/07/24 00:15:53;;;;;;;9.05;7.43;;;;;;;13.94;100.00;100816.22;4997969;28;20098;-80
2021/07/24 00:18:20;;;;;;;12.20;8.23;;;;;;;13.91;100.00;100815.44;5031746;28;20045;-80
2021/07/24 00:20:47;;;;;;;9.27;7.68;;;;;;;13.87;100.00;100809.34;5040943;28;20045;-80
2021/07/24 00:23:13;;;;;;;10.00;8.13;;;;;;;13.82;100.00;100813.97;5001632;28;20091;-80
2021/07/24 00:25:40;;;;;;;9.52;7.68;;;;;;;13.82;100.00;100811.28;5028693;28;20053;-81
2021/07/24 00:28:07;;;;;;;10.60;7.20;;;;;;;13.84;100.00;100820.06;4992788;28;20454;-80
2021/07/24 00:30:38;;;;;;;10.52;8.20;;;;;;;13.81;100.00;100809.56;5029251;28;20525;-80
2021/07/24 00:33:05;;;;;;;10.35;8.25;;;;;;;13.82;100.00;100813.09;5019027;28;20094;-80
2021/07/24 00:35:35;;;;;;;11.68;8.38;;;;;;;13.85;100.00;100811.19;4997543;28;20045;-81
2021/07/24 00:38:02;;;;;;;12.50;7.63;;;;;;;13.84;100.00;100809.47;4990743;28;20045;-82
2021/07/24 00:40:30;;;;;;;9.80;7.90;;;;;;;13.88;100.00;100811.13;4995462;28;20053;-81
2021/07/24 00:42:58;;;;;;;10.63;7.78;;;;;;;13.89;100.00;100804.88;5005005;28;20033;-80
2021/07/24 00:45:28;;;;;;;12.48;8.23;;;;;;;13.86;100.00;100806.75;5010397;28;20506;-80
2021/07/24 00:47:56;;;;;;;12.45;8.07;;;;;;;13.82;100.00;100800.69;5009052;28;20060;-81
2021/07/24 00:50:23;;;;;;;11.80;8.98;;;;;;;13.80;100.00;100802.53;4977858;28;20059;-81
2021/07/24 00:52:52;;;;;;;9.38;6.97;;;;;;;13.79;100.00;100808.75;5008435;28;20099;-81
2021/07/24 00:55:19;;;;;;;10.23;7.88;;;;;;;13.78;100.00;100799.88;5006067;28;20045;-80
2021/07/24 00:57:45;;;;;;;11.30;8.43;;;;;;;13.78;100.00;100799.88;4993251;28;20094;-81
2021/07/24 01:00:13;;;;;;;10.52;7.60;;;;;;;13.81;100.00;100793.63;5000742;28;20575;-80
2021/07/24 01:02:40;;;;;;;9.88;7.50;;;;;;;13.82;100.00;100797.16;5018343;28;20051;-81
2021/07/24 01:05:07;;;;;;;13.55;8.02;;;;;;;13.83;100.00;100799.75;5001783;28;20045;-81
2021/07/24 01:07:38;;;;;;;11.25;8.43;;;;;;;13.85;100.00;100797.91;4993534;28;21789;-80
2021/07/24 01:10:05;;;;;;;10.93;7.72;;;;;;;13.85;100.00;100789.94;5026132;28;20048;-81
2021/07/24 01:12:36;;;;;;;9.02;7.35;;;;;;;13.85;100.00;100791.72;5005305;28;20132;-80
2021/07/24 01:15:05;;;;;;;10.48;7.72;;;;;;;13.81;100.00;100790.97;5028611;28;20529;-80
2021/07/24 01:17:31;;;;;;;9.02;7.75;;;;;;;13.81;100.00;100793.63;5022695;28;20048;-81
2021/07/24 01:19:58;;;;;;;10.13;7.95;;;;;;;13.78;100.00;100786.59;5019416;28;20095;-80
2021/07/24 01:22:27;;;;;;;10.02;7.18;;;;;;;13.84;100.00;100788.22;5013083;28;20044;-80
2021/07/24 01:24:54;;;;;;;10.82;8.23;;;;;;;13.84;100.00;100784.69;5006576;28;20090;-80
2021/07/24 01:27:20;;;;;;;11.20;8.20;;;;;;;13.87;100.00;100781.91;5024842;28;20045;-79
2021/07/24 01:29:48;;;;;;;11.80;8.50;;;;;;;13.89;100.00;100785.44;5007823;28;20034;-79
2021/07/24 01:32:14;;;;;;;13.13;8.07;;;;;;;13.91;100.00;100778.28;5037676;28;20045;-81
2021/07/24 01:34:44;;;;;;;10.27;7.93;;;;;;;13.88;100.00;100773.94;5049031;28;20041;-79
2021/07/24 01:37:10;;;;;;;12.30;9.35;;;;;;;13.82;100.00;100779.44;4998357;28;20451;-79
2021/07/24 01:39:37;;;;;;;10.38;8.50;;;;;;;13.82;100.00;100782.09;5010812;28;20136;-80
2021/07/24 01:42:04;;;;;;;11.85;8.85;;;;;;;13.78;100.00;100783.94;5009252;28;20067;-81
2021/07/24 01:44:30;;;;;;;11.00;7.97;;;;;;;13.75;100.00;100785.84;5006135;28;20098;-81
2021/07/24 01:46:57;;;;;;;10.30;8.10;;;;;;;13.68;100.00;100787.81;5030321;28;20468;-81
2021/07/24 01:55:06;;;;;;;10.82;7.78;;;;;;;13.60;100.00;100784.53;5047271;28;20041;-80
2021/07/24 01:57:34;;;;;;;10.20;7.93;;;;;;;13.60;100.00;100781.00;4991452;28;20052;-80
2021/07/24 02:00:08;;;;;;;10.23;8.00;;;;;;;13.61;100.00;100785.41;5002878;28;20052;-79
2021/07/24 02:02:36;;;;;;;;;;;;;;;13.58;100.00;100782.84;5035604;28;20048;-80
2021/07/24 02:05:05;;;;;;;10.00;8.25;;;;;;;13.61;100.00;100785.41;5019816;28;20012;-80
2021/07/24 02:07:36;;;;;;;8.88;7.35;;;;;;;13.53;100.00;100778.53;5015008;28;20738;-79
2021/07/24 02:10:04;;;;;;;11.63;9.10;;;;;;;13.55;100.00;100775.88;5080819;23;20045;-77
2021/07/24 02:12:31;;;;;;;10.35;8.98;;;;;;;13.57;100.00;100778.47;5027220;28;20044;-76
2021/07/24 02:14:59;;;;;;;11.38;9.20;;;;;;;13.54;100.00;100771.47;5007595;28;20569;-77
2021/07/24 02:17:26;;;;;;;13.05;9.40;;;;;;;13.53;100.00;100772.38;5018478;28;20482;-77
2021/07/24 02:19:53;;;;;;;12.35;9.52;;;;;;;13.50;100.00;100767.16;5002207;28;20132;-77
2021/07/24 02:22:20;;;;;;;13.20;9.93;;;;;;;13.48;100.00;100775.19;5014573;28;20056;-77
2021/07/24 02:24:46;;;;;;;11.55;8.68;;;;;;;13.51;100.00;100775.06;5025764;28;20104;-78
2021/07/24 02:27:13;;;;;;;11.13;8.90;;;;;;;13.57;100.00;100768.72;5025472;28;20041;-77
2021/07/24 02:29:40;;;;;;;12.48;10.18;;;;;;;13.55;100.00;100770.56;5024836;28;20111;-76
2021/07/24 02:32:07;;;;;;;12.52;9.23;;;;;;;13.55;100.00;100772.34;5012158;28;20494;-77
2021/07/24 02:34:33;;;;;;;12.27;10.05;;;;;;;13.53;100.00;100772.38;5032471;28;20236;-77
2021/07/24 02:37:00;;;;;;;11.30;9.25;;;;;;;13.52;100.00;100771.50;5013823;28;20045;-77
2021/07/24 02:39:27;;;;;;;12.27;9.55;;;;;;;13.51;100.00;100771.53;4996349;28;20056;-77
2021/07/24 02:41:53;;;;;;;14.38;10.25;;;;;;;13.42;100.00;100775.34;5040766;28;20045;-77
2021/07/24 02:44:20;;;;;;;14.77;8.77;;;;;;;13.44;100.00;100770.84;5024850;28;20045;-76
2021/07/24 02:46:46;;;;;;;13.18;10.20;;;;;;;13.46;100.00;100771.72;5010592;28;20096;-78
2021/07/24 02:49:14;;;;;;;13.52;9.85;;;;;;;13.54;100.00;100766.16;5025633;28;20502;-77
2021/07/24 02:51:41;;;;;;;14.13;10.60;;;;;;;13.49;100.00;100768.09;5009160;28;20053;-77
2021/07/24 02:54:08;;;;;;;13.15;10.40;;;;;;;13.47;100.00;100776.09;4989472;28;20041;-77
2021/07/24 02:56:34;;;;;;;14.15;10.02;;;;;;;13.49;100.00;100766.28;5031432;28;20052;-77
2021/07/24 02:59:01;;;;;;;13.50;9.55;;;;;;;13.55;100.00;100764.38;5013189;28;20034;-76
2021/07/24 03:01:27;;;;;;;13.73;10.38;;;;;;;13.57;100.00;100768.72;5028767;28;20045;-77
2021/07/24 03:03:54;;;;;;;14.10;10.90;;;;;;;13.62;100.00;100763.25;5014950;28;20508;-77
2021/07/24 03:06:21;;;;;;;12.63;10.07;;;;;;;13.57;100.00;100765.19;5024682;28;20506;-76
2021/07/24 03:08:48;;;;;;;12.35;9.77;;;;;;;13.51;100.00;100766.25;5025916;28;20045;-76
2021/07/24 03:11:14;;;;;;;13.63;10.25;;;;;;;13.49;100.00;100766.28;5008932;28;20041;-77
2021/07/24 03:13:41;;;;;;;11.15;9.20;;;;;;;13.55;100.00;100770.56;5035438;28;20045;-77
2021/07/24 03:16:08;;;;;;;12.52;10.55;;;;;;;13.53;100.00;100761.75;4999246;28;20088;-78
2021/07/24 03:18:34;;;;;;;15.07;10.40;;;;;;;13.56;100.00;100763.47;5027024;28;20115;-77
2021/07/24 03:21:01;;;;;;;12.38;9.65;;;;;;;13.50;100.00;100762.72;4995126;28;20091;-77
2021/07/24 03:23:28;;;;;;;13.10;10.43;;;;;;;13.54;100.00;100752.91;5013889;28;20062;-76
2021/07/24 03:25:54;;;;;;;11.75;9.32;;;;;;;13.52;100.00;100763.53;4996605;28;20042;-77
2021/07/24 03:28:21;;;;;;;13.48;10.75;;;;;;;13.58;100.00;100757.19;5018923;28;20068;-77
2021/07/24 03:30:49;;;;;;;12.43;10.13;;;;;;;13.67;100.00;100756.00;5030903;28;20041;-77
2021/07/24 03:33:16;;;;;;;13.13;11.02;;;;;;;13.77;100.00;100753.00;5009309;28;20033;-76
2021/07/24 03:35:43;;;;;;;13.05;10.77;;;;;;;13.80;100.00;100749.41;5024320;28;20076;-77
2021/07/24 03:38:09;;;;;;;14.23;9.80;;;;;;;13.79;100.00;100747.69;5004515;28;20464;-76
2021/07/24 03:40:36;;;;;;;14.10;10.52;;;;;;;13.83;100.00;100753.75;4995088;28;20056;-78
2021/07/24 03:43:02;;;;;;;14.25;11.10;;;;;;;13.82;100.00;100744.03;4991747;28;20079;-77
2021/07/24 03:45:32;;;;;;;14.00;10.82;;;;;;;13.85;100.00;100752.75;5025782;28;20048;-77
2021/07/24 03:47:59;;;;;;;15.95;11.07;;;;;;;13.90;100.00;100742.00;5005524;28;20053;-77
2021/07/24 03:50:25;;;;;;;15.27;11.00;;;;;;;13.93;100.00;100737.44;5018835;28;20399;-78
2021/07/24 03:52:52;;;;;;;14.18;11.05;;;;;;;13.92;100.00;100738.38;5016649;28;20045;-76
2021/07/24 03:55:18;;;;;;;12.70;9.85;;;;;;;13.94;100.00;100731.22;4987535;28;20045;-77
2021/07/24 03:57:45;;;;;;;13.20;10.65;;;;;;;14.02;100.00;100731.81;5006881;28;20102;-77
2021/07/24 04:00:12;;;;;;;11.98;9.98;;;;;;;14.06;100.00;100733.47;5024630;28;20416;-77
2021/07/24 04:02:42;;;;;;;14.18;10.70;;;;;;;14.13;100.00;100733.28;5031203;28;20514;-77
2021/07/24 04:05:10;;;;;;;12.15;10.35;;;;;;;14.21;100.00;100725.88;5008850;28;20217;-77
2021/07/24 04:07:37;;;;;;;11.48;10.10;;;;;;;14.22;100.00;100725.84;5019590;28;20041;-77
2021/07/24 04:10:06;;;;;;;13.15;10.27;;;;;;;14.24;100.00;100723.13;5030694;28;20053;-76
2021/07/24 04:12:34;;;;;;;12.27;10.43;;;;;;;14.24;100.00;100728.47;5008207;28;20075;-77
2021/07/24 04:15:05;;;;;;;11.45;9.73;;;;;;;14.24;100.00;100725.81;5015303;28;20102;-76
2021/07/24 04:17:32;;;;;;;14.05;10.95;;;;;;;14.30;100.00;100725.59;4999143;28;20068;-77
2021/07/24 04:19:59;;;;;;;11.90;10.43;;;;;;;14.37;100.00;100727.09;5022538;28;20094;-77
2021/07/24 04:22:25;;;;;;;13.57;10.35;;;;;;;14.37;100.00;100725.28;5044710;28;20045;-75
2021/07/24 04:24:52;;;;;;;13.13;10.02;;;;;;;14.36;100.00;100722.69;5012186;28;20513;-77
2021/07/24 04:27:18;;;;;;;13.05;11.00;;;;;;;14.47;100.00;100727.69;5014058;28;20054;-76
2021/07/24 04:29:46;;;;;;;14.25;11.15;;;;;;;14.46;100.00;100729.50;4981798;28;20053;-77
2021/07/24 04:32:12;;;;;;;12.30;10.20;;;;;;;14.46;100.00;100726.81;5020885;28;20037;-77
2021/07/24 04:34:39;;;;;;;13.25;10.80;;;;;;;14.52;100.00;100726.59;5017761;28;20041;-77
2021/07/24 04:37:06;;;;;;;14.02;11.43;;;;;;;14.51;100.00;100726.66;5025954;28;20127;-76
2021/07/24 04:39:32;;;;;;;14.00;10.77;;;;;;;14.57;100.00;100726.44;5023195;28;20099;-77
2021/07/24 04:41:59;;;;;;;13.10;11.18;;;;;;;14.57;100.00;100727.31;5020294;28;20052;-77
2021/07/24 04:44:25;;;;;;;12.60;10.63;;;;;;;14.63;100.00;100737.72;5030685;28;20414;-77
2021/07/24 04:46:52;;;;;;;14.10;10.77;;;;;;;14.72;100.00;100733.00;5000114;28;20111;-77
2021/07/24 04:49:19;;;;;;;13.70;11.48;;;;;;;14.74;100.00;100736.47;5007825;28;20044;-76
2021/07/24 04:51:45;;;;;;;14.35;10.95;;;;;;;14.70;100.00;100743.66;4997216;28;20410;-77
2021/07/24 04:54:12;;;;;;;13.23;11.40;;;;;;;14.78;100.00;100746.06;5003623;28;20080;-78
2021/07/24 04:56:39;;;;;;;14.90;10.93;;;;;;;14.86;100.00;100736.88;5004562;28;20045;-77
2021/07/24 04:59:06;;;;;;;15.88;12.00;;;;;;;14.95;100.00;100742.78;5019172;28;20112;-77
2021/07/24 05:01:34;;;;;;;13.73;11.68;;;;;;;14.93;100.00;100738.38;5007162;28;20108;-78
2021/07/24 05:04:02;;;;;;;13.00;11.52;;;;;;;15.01;100.00;100737.22;5019620;28;20042;-77
2021/07/24 05:06:30;;;;;;;17.73;11.70;;;;;;;15.01;100.00;100739.91;5001046;28;20037;-78
2021/07/24 05:08:57;;;;;;;16.10;11.40;;;;;;;15.10;100.00;100748.41;5039507;28;20034;-76
2021/07/24 05:11:23;;;;;;;12.65;11.00;;;;;;;15.18;100.00;100746.31;5014318;28;20071;-78
2021/07/24 05:13:50;;;;;;;13.55;10.80;;;;;;;15.19;100.00;100750.69;5023378;28;20045;-78
2021/07/24 05:16:18;;;;;;;13.85;10.77;;;;;;;15.35;100.00;100751.00;4998676;28;20042;-76
2021/07/24 05:18:45;;;;;;;13.80;11.38;;;;;;;15.38;100.00;100756.19;5000536;28;20103;-78
2021/07/24 05:21:16;;;;;;;16.23;12.00;;;;;;;15.42;100.00;100748.97;5021665;28;20083;-78
2021/07/24 05:23:43;;;;;;;14.18;11.45;;;;;;;15.45;100.00;100759.47;5014775;28;20049;-77
2021/07/24 05:26:16;;;;;;;14.20;11.50;;;;;;;15.57;100.00;100750.16;5038788;28;20048;-77
2021/07/24 05:28:42;;;;;;;16.23;11.73;;;;;;;15.68;100.00;100754.16;5014198;28;20045;-77
2021/07/24 05:31:19;;;;;;;14.07;11.65;;;;;;;15.75;100.00;100749.44;5022372;28;20042;-77
2021/07/24 05:33:46;;;;;;;17.23;13.07;;;;;;;15.94;100.00;100750.44;4998177;28;20052;-77
2021/07/24 05:36:12;;;;;;;14.88;11.10;;;;;;;15.89;100.00;100751.53;5029544;28;20037;-77
2021/07/24 05:38:39;;;;;;;13.35;11.32;;;;;;;15.92;100.00;100746.09;5006601;28;20506;-76
2021/07/24 05:41:06;;;;;;;13.85;11.02;;;;;;;15.98;100.00;100749.38;5003516;28;20045;-77
2021/07/24 05:43:32;;;;;;;11.80;9.93;;;;;;;15.98;100.00;100740.53;5010401;28;20065;-76
2021/07/24 05:46:00;;;;;;;12.43;9.45;;;;;;;15.98;100.00;100741.41;4990745;28;20560;-77
2021/07/24 05:48:28;;;;;;;11.75;9.45;;;;;;;16.09;100.00;100735.59;5018687;28;20372;-77
2021/07/24 05:50:55;;;;;;;11.65;9.35;;;;;;;16.19;100.00;100747.59;5024281;28;20049;-78
2021/07/24 05:53:21;;;;;;;12.00;9.35;;;;;;;16.24;100.00;100750.97;4997522;28;20042;-77
2021/07/24 05:55:48;;;;;;;13.38;10.02;;;;;;;16.28;100.00;100749.88;4998556;28;20576;-78
2021/07/24 05:58:15;;;;;;;12.10;10.13;;;;;;;16.30;100.00;100747.16;5013213;28;20058;-77
2021/07/24 06:00:41;;;;;;;12.07;10.20;;;;;;;16.29;100.00;100740.94;5003145;28;20042;-77
2021/07/24 06:03:08;;;;;;;11.90;10.13;;;;;;;16.36;100.00;100741.56;5015634;28;20036;-77
2021/07/24 06:05:35;;;;;;;18.30;11.55;;;;;;;16.43;100.00;100744.84;5017753;28;20933;-77
2021/07/24 06:08:02;;;;;;;13.57;11.02;;;;;;;17.38;100.00;100752.09;4989781;28;20054;-78
2021/07/24 06:10:28;;;;;;;13.10;10.02;;;;;;;18.95;89.20;100746.88;5016018;28;20783;-77
2021/07/24 06:12:57;;;;;;;13.10;10.15;;;;;;;20.24;80.98;100741.34;5023556;28;20072;-77
2021/07/24 06:15:23;;;;;;;12.90;10.55;;;;;;;21.33;74.65;100745.47;5019777;28;20059;-77
2021/07/24 06:17:50;;;;;;;12.88;9.88;;;;;;;21.61;71.84;100736.50;5003361;28;20049;-77
2021/07/24 06:20:18;;;;;;;11.60;9.65;;;;;;;21.66;70.93;100739.72;5017650;28;20099;-77
2021/07/24 06:22:44;;;;;;;13.05;9.95;;;;;;;21.44;72.16;100737.59;5012595;28;20041;-77
2021/07/24 06:25:12;;;;;;;10.65;9.27;;;;;;;21.54;73.50;100745.91;5002632;28;20030;-78
2021/07/24 06:27:40;;;;;;;11.95;9.95;;;;;;;21.53;73.74;100741.50;5021365;28;20063;-77
2021/07/24 06:30:10;;;;;;;14.18;10.43;;;;;;;21.66;73.87;100745.09;5000417;28;20530;-77
2021/07/24 06:32:37;;;;;;;11.85;9.75;;;;;;;21.92;74.19;100743.38;5026951;28;20083;-78
2021/07/24 06:35:04;;;;;;;11.05;9.82;;;;;;;22.29;73.04;100743.66;5008232;28;20041;-77
2021/07/24 06:37:30;;;;;;;12.85;10.05;;;;;;;22.46;70.62;100744.22;4999097;28;20049;-77
2021/07/24 06:39:57;;;;;;;14.50;10.25;;;;;;;22.89;71.43;100752.06;5035927;28;20044;-76
2021/07/24 06:42:24;;;;;;;11.85;10.15;;;;;;;23.02;69.54;100744.81;4992682;28;20037;-78
2021/07/24 06:44:53;;;;;;;12.55;10.07;;;;;;;22.67;64.21;100738.31;5020934;28;20042;-76
2021/07/24 06:47:20;;;;;;;11.38;9.55;;;;;;;22.76;66.82;100734.97;5001091;28;20577;-76
2021/07/24 06:49:47;;;;;;;14.32;9.93;;;;;;;22.74;64.01;100745.00;4996278;28;20506;-76
2021/07/24 06:52:14;;;;;;;14.60;10.23;;;;;;;22.91;63.95;100741.16;5001663;28;20040;-78
2021/07/24 06:54:41;;;;;;;11.77;9.98;;;;;;;22.96;65.01;100739.88;5027367;28;20045;-78
2021/07/24 06:57:07;;;;;;;13.30;9.75;;;;;;;23.14;64.48;100736.84;5015469;28;20694;-77
2021/07/24 06:59:34;;;;;;;13.88;11.05;;;;;;;23.08;60.25;100737.28;5024656;28;20052;-79
2021/07/24 07:02:01;;;;;;;11.10;9.63;;;;;;;23.33;62.47;100734.53;5028632;28;20045;-78
2021/07/24 07:04:28;;;;;;;12.55;9.68;;;;;;;23.39;65.23;100726.00;5007956;28;20045;-76
2021/07/24 07:06:55;;;;;;;12.07;9.63;;;;;;;23.62;64.21;100731.56;5012537;28;20052;-76
2021/07/24 07:09:21;;;;;;;12.00;9.95;;;;;;;23.52;61.25;100729.50;5003819;28;20068;-77
2021/07/24 07:11:48;;;;;;;11.18;9.52;;;;;;;23.68;62.57;100728.41;4996592;28;20033;-76
2021/07/24 07:14:15;;;;;;;19.10;10.23;;;;;;;23.90;60.95;100719.59;5028715;28;20140;-77
2021/07/24 07:16:41;;;;;;;13.73;10.10;;;;;;;24.06;59.47;100718.31;4983406;28;20049;-78
2021/07/24 07:19:08;;;;;;;11.68;9.73;;;;;;;24.21;59.09;100716.28;5012045;28;20404;-77
2021/07/24 07:21:35;;;;;;;10.93;9.48;;;;;;;24.23;61.79;100718.88;5007338;28;20047;-77
2021/07/24 07:24:01;;;;;;;10.55;9.30;;;;;;;24.32;54.94;100718.22;5002158;28;20049;-79
2021/07/24 07:26:32;;;;;;;11.20;9.40;;;;;;;24.47;58.40;100717.03;5011665;28;20077;-77
2021/07/24 07:29:03;;;;;;;10.63;9.32;;;;;;;24.71;58.93;100725.03;4996996;28;20049;-77
2021/07/24 07:31:31;;;;;;;13.60;10.30;;;;;;;24.92;55.99;100709.84;4991462;28;20450;-77
2021/07/24 07:33:57;;;;;;;11.98;10.25;;;;;;;25.10;56.20;100714.78;5025445;28;20111;-78
2021/07/24 07:36:24;;;;;;;11.43;9.40;;;;;;;25.08;57.21;100714.91;5022292;28;20095;-78
2021/07/24 07:38:51;;;;;;;11.40;9.77;;;;;;;25.30;55.39;100710.44;5025075;28;20041;-77
2021/07/24 07:41:19;;;;;;;11.85;9.40;;;;;;;25.15;53.99;100704.47;4998542;28;20049;-77
2021/07/24 07:43:47;;;;;;;11.77;9.70;;;;;;;25.17;53.69;100707.91;4978963;28;20042;-77
2021/07/24 07:46:14;;;;;;;11.50;9.95;;;;;;;25.09;52.62;100708.50;5017260;28;20106;-78
2021/07/24 07:48:41;;;;;;;13.60;10.25;;;;;;;25.15;50.64;100707.16;5020267;28;20033;-77
2021/07/24 07:51:08;;;;;;;12.43;10.05;;;;;;;25.11;51.67;100700.28;4984777;28;20555;-76
2021/07/24 07:53:35;;;;;;;11.18;9.25;;;;;;;25.39;56.82;100693.47;4990466;28;20452;-77
2021/07/24 07:56:02;;;;;;;9.85;8.75;;;;;;;25.48;52.35;100690.91;5013550;28;20087;-78
2021/07/24 07:58:29;;;;;;;91.28;17.98;;;;;;;25.62;48.47;100684.31;5008863;28;20115;-77
2021/07/24 08:00:56;;;;;;;13.45;9.73;;;;;;;25.78;49.62;100681.25;5011548;28;20068;-78
2021/07/24 08:03:25;;;;;;;12.30;10.00;;;;;;;25.82;48.23;100688.13;5018095;28;20045;-78
2021/07/24 08:05:52;;;;;;;12.40;9.88;;;;;;;25.58;50.90;100682.88;5004643;28;20071;-78
2021/07/24 08:08:19;;;;;;;11.13;9.18;;;;;;;25.76;50.07;100683.22;5000439;28;20107;-78
2021/07/24 08:10:46;;;;;;;10.23;9.15;;;;;;;26.07;52.49;100681.50;4992978;28;20598;-77
2021/07/24 08:13:13;;;;;;;12.68;10.07;;;;;;;26.16;50.62;100669.03;4998110;28;20530;-77
2021/07/24 08:15:41;;;;;;;11.88;10.00;;;;;;;26.45;50.99;100675.50;5020723;28;20045;-78
2021/07/24 08:18:08;;;;;;;13.60;10.88;;;;;;;26.48;50.42;100677.94;5096017;23;20037;-82
2021/07/24 08:20:39;;;;;;;10.55;9.45;;;;;;;26.51;49.79;100666.88;5015803;28;20049;-81
2021/07/24 08:23:10;;;;;;;11.52;9.15;;;;;;;26.75;51.92;100679.25;5003204;28;20041;-82
2021/07/24 08:25:37;;;;;;;13.10;10.13;;;;;;;26.70;50.58;100676.94;4985253;28;20049;-79
2021/07/24 08:28:04;;;;;;;13.15;10.02;;;;;;;26.73;47.31;100676.66;5023537;28;20044;-80
2021/07/24 08:30:32;;;;;;;11.73;9.80;;;;;;;26.72;47.85;100677.66;5005389;28;20130;-80
2021/07/24 08:32:59;;;;;;;13.18;9.77;;;;;;;26.88;50.14;100678.03;4993251;28;20037;-82
2021/07/24 08:35:26;;;;;;;12.93;10.43;;;;;;;26.30;44.71;100664.13;5009827;28;20044;-81
2021/07/24 08:37:53;;;;;;;13.35;9.77;;;;;;;26.47;47.58;100668.09;5012340;28;20585;-79
2021/07/24 08:40:20;;;;;;;11.35;9.50;;;;;;;26.50;48.33;100662.44;4996756;28;20064;-81
2021/07/24 08:42:47;;;;;;;11.38;10.02;;;;;;;26.82;47.51;100666.84;4980800;28;20065;-82
2021/07/24 08:45:17;;;;;;;12.10;10.07;;;;;;;26.86;46.56;100663.75;5016978;28;20047;-82
2021/07/24 08:47:44;;;;;;;11.20;9.82;;;;;;;27.10;49.29;100659.88;4980970;28;20053;-83
2021/07/24 08:50:11;;;;;;;11.98;9.43;;;;;;;27.31;49.36;100657.06;5014033;28;20119;-82
2021/07/24 08:52:38;;;;;;;10.95;9.52;;;;;;;27.33;45.36;100652.41;5020383;28;20099;-82
2021/07/24 08:55:07;;;;;;;12.15;10.25;;;;;;;27.48;43.66;100653.69;5008030;28;20044;-82
2021/07/24 08:57:39;;;;;;;11.80;10.30;;;;;;;27.41;45.43;100641.66;4997171;28;20061;-82
2021/07/24 09:00:10;;;;;;;11.95;9.93;;;;;;;27.69;46.74;100643.59;4991844;28;20049;-81
2021/07/24 09:02:42;;;;;;;12.80;10.68;;;;;;;26.83;43.74;100646.91;5020801;28;20506;-83
2021/07/24 09:05:11;;;;;;;14.20;10.57;;;;;;;27.47;46.41;100647.41;4981791;28;20417;-82
2021/07/24 09:07:57;;;;;;;12.23;10.48;;;;;;;27.26;44.50;100654.78;4999923;28;20759;-81
2021/07/24 09:10:24;;;;;;;12.20;10.48;;;;;;;27.49;47.88;100656.28;4997485;28;20102;-83
2021/07/24 09:12:55;;;;;;;10.48;9.38;;;;;;;27.59;45.25;100656.28;5018678;28;20040;-82
2021/07/24 09:15:22;;;;;;;13.15;10.77;;;;;;;27.01;42.51;100650.69;4986717;28;20048;-79
2021/07/24 09:17:49;;;;;;;11.40;10.20;;;;;;;27.38;42.80;100650.09;5015823;28;20045;-82
2021/07/24 09:20:22;;;;;;;11.27;9.85;;;;;;;27.38;42.39;100647.38;4998897;28;20049;-81
2021/07/24 09:22:49;;;;;;;16.40;10.73;;;;;;;27.44;43.38;100649.56;4976748;28;20053;-81
2021/07/24 09:25:17;;;;;;;13.52;9.80;;;;;;;27.55;42.08;100645.84;5014101;28;20033;-79
2021/07/24 09:27:51;;;;;;;11.75;10.10;;;;;;;27.98;43.72;100645.47;5041987;28;20041;-79
2021/07/24 09:30:32;;;;;;;11.73;9.50;;;;;;;27.93;41.36;100642.34;5010495;28;20042;-79
2021/07/24 09:33:03;;;;;;;11.73;9.55;;;;;;;27.99;40.63;100633.59;5033860;28;20056;-82
2021/07/24 09:35:41;;;;;;;10.73;9.57;;;;;;;28.21;41.74;100637.88;5003271;28;20411;-82
2021/07/24 09:38:10;;;;;;;12.13;10.63;;;;;;;27.70;40.54;100639.91;5020529;28;20056;-83
2021/07/24 09:40:42;;;;;;;11.75;10.48;;;;;;;27.79;38.75;100635.47;5020026;28;20079;-82
2021/07/24 09:43:26;;;;;;;12.27;10.05;;;;;;;28.07;40.67;100632.88;5016231;28;20053;-83
2021/07/24 09:46:21;;;;;;;12.10;9.98;;;;;;;28.18;42.30;100630.00;5030180;28;20037;-80
2021/07/24 09:48:52;;;;;;;11.77;10.32;;;;;;;28.30;40.06;100637.00;5028203;28;20109;-82
2021/07/24 09:51:35;;;;;;;12.13;10.82;;;;;;;28.16;37.47;100626.56;5018394;28;20505;-82
2021/07/24 09:54:02;;;;;;;11.30;9.55;;;;;;;28.00;41.73;100619.91;5012889;28;20096;-82
2021/07/24 09:56:42;;;;;;;11.70;9.75;;;;;;;28.15;42.67;100622.13;5013933;28;20033;-84
2021/07/24 09:59:20;;;;;;;13.77;10.82;;;;;;;28.43;38.21;100606.81;4989360;28;20592;-83
2021/07/24 10:02:00;;;;;;;12.40;11.10;;;;;;;28.85;40.01;100612.66;5023568;28;20065;-83
2021/07/24 10:04:31;;;;;;;17.70;15.50;;;;;;;28.81;38.76;100611.25;5003777;28;20047;-84
2021/07/24 10:07:01;;;;;;;11.93;9.27;;;;;;;29.07;40.39;100619.56;4984023;28;20087;-84
2021/07/24 10:09:30;;;;;;;13.07;9.57;;;;;;;28.70;37.47;100614.16;5009572;28;20521;-82
2021/07/24 10:12:01;;;;;;;13.63;10.32;;;;;;;28.92;37.43;100607.50;5005730;28;20048;-82
2021/07/24 10:14:29;;;;;;;13.07;9.93;;;;;;;28.82;37.47;100605.63;5012767;28;20041;-83
2021/07/24 10:16:57;;;;;;;11.93;10.13;;;;;;;28.94;37.44;100606.34;5019996;28;20034;-85
2021/07/24 10:19:24;;;;;;;11.68;10.38;;;;;;;29.16;37.83;100605.91;5005969;28;20596;-83
2021/07/24 10:21:54;;;;;;;13.45;10.68;;;;;;;29.21;38.00;100596.44;4982163;28;20042;-83
2021/07/24 10:24:21;;;;;;;11.45;9.93;;;;;;;29.17;39.22;100607.63;5000818;28;20045;-84
2021/07/24 10:26:53;;;;;;;12.73;9.55;;;;;;;29.46;37.59;100600.28;4998202;28;20441;-84
2021/07/24 10:29:27;;;;;;;10.55;9.10;;;;;;;29.24;37.87;100604.31;5002772;28;20041;-84
2021/07/24 10:32:08;;;;;;;11.70;9.77;;;;;;;29.34;37.91;100607.81;5000440;28;20053;-83
2021/07/24 10:34:38;;;;;;;10.73;9.63;;;;;;;29.33;37.97;100597.94;5003504;28;20051;-84
2021/07/24 10:37:33;;;;;;;12.45;9.85;;;;;;;29.31;35.30;100597.25;4999254;28;20166;-84
2021/07/24 10:40:15;;;;;;;23.77;10.73;;;;;;;29.05;40.37;100605.28;5007346;28;20087;-83
2021/07/24 10:42:48;;;;;;;11.20;8.82;;;;;;;29.19;38.32;100609.38;4996924;28;20488;-81
2021/07/24 10:45:54;;;;;;;12.45;9.30;;;;;;;28.91;36.85;100605.78;4973709;28;20225;-80
2021/07/24 10:48:21;;;;;;;10.88;9.20;;;;;;;29.04;35.53;100600.84;5011160;28;20042;-82
2021/07/24 10:50:53;;;;;;;12.25;8.95;;;;;;;29.37;36.26;100604.78;5000564;28;20038;-81
2021/07/24 10:53:21;;;;;;;11.30;10.20;;;;;;;29.60;35.37;100603.38;5021842;28;20071;-82
2021/07/24 10:55:52;;;;;;;10.13;9.20;;;;;;;29.57;36.52;100608.25;5004630;28;20038;-80
2021/07/24 10:58:26;;;;;;;11.40;9.98;;;;;;;29.59;38.03;100611.66;5008748;28;20050;-82
2021/07/24 11:00:54;;;;;;;11.55;10.30;;;;;;;29.43;40.21;100602.31;5011714;28;20434;-83
2021/07/24 11:03:46;;;;;;;11.65;10.45;;;;;;;28.87;36.89;100599.75;5010974;28;20797;-82
2021/07/24 11:06:24;;;;;;;12.65;10.30;;;;;;;28.48;36.13;100602.63;5010913;28;20038;-83
2021/07/24 11:09:14;;;;;;;12.30;10.95;;;;;;;28.81;38.58;100601.22;4981466;28;20041;-81
2021/07/24 11:12:03;;;;;;;12.45;9.82;;;;;;;28.51;36.62;100601.50;4993095;28;20244;-81
2021/07/24 11:14:30;;;;;;;11.23;10.02;;;;;;;28.35;38.89;100595.84;4992397;28;20041;-82
2021/07/24 11:17:05;;;;;;;11.60;9.93;;;;;;;28.37;40.08;100591.97;5034275;28;20042;-81
2021/07/24 11:19:37;;;;;;;10.50;9.40;;;;;;;28.31;38.49;100592.53;5012679;28;20045;-81
2021/07/24 11:22:11;;;;;;;11.85;10.07;;;;;;;28.52;40.24;100586.91;5010160;28;20037;-81